Time;durP1;ratioP1;P1;durP2;ratioP2;P2;SDS_P1;SDS_P2;PMS_P1;PMS_P2;Temp;Humidity;BMP_temperature;BMP_pressure;BME280_temperature;BME280_humidity;BME280_pressure;Samples;Min_cycle;Max_cycle;Signal;HPM_P1;HPM_P2
2021/11/20 00:03:48;;;;;;;17.80;13.60;;;;;;;9.72;83.53;101527.66;10284479;28;20548;-63
2021/11/20 00:08:50;;;;;;;21.60;15.77;;;;;;;9.76;83.50;101526.53;10294047;28;20086;-64
2021/11/20 00:13:53;;;;;;;20.77;15.95;;;;;;;9.71;83.30;101520.63;10279691;28;20081;-64
2021/11/20 00:18:55;;;;;;;16.45;14.65;;;;;;;9.77;83.59;101517.59;10286926;28;20039;-63
2021/11/20 00:23:59;;;;;;;17.80;14.57;;;;;;;9.80;83.50;101513.91;10281294;28;20137;-64
2021/11/20 00:29:18;;;;;;;19.38;16.83;;;;;;;9.68;83.56;101516.34;10297852;28;20050;-64
2021/11/20 00:34:23;;;;;;;19.02;15.18;;;;;;;9.75;83.51;101500.88;10280352;28;20052;-64
2021/11/20 00:39:29;;;;;;;19.77;15.25;;;;;;;9.72;83.63;101496.59;10286379;28;20050;-63
2021/11/20 00:44:31;;;;;;;17.08;15.02;;;;;;;9.67;83.78;101493.34;10286650;28;20527;-64
2021/11/20 00:49:33;;;;;;;21.45;15.45;;;;;;;9.73;83.78;101493.00;10293567;28;20134;-64
2021/11/20 00:54:35;;;;;;;21.55;16.02;;;;;;;9.71;84.09;101494.03;10298021;28;20050;-65
2021/11/20 00:59:37;;;;;;;28.10;16.17;;;;;;;9.67;84.00;101484.53;10300549;28;20150;-65
2021/11/20 01:04:39;;;;;;;20.20;15.57;;;;;;;9.64;84.60;101488.22;10280905;28;20046;-64
2021/11/20 01:09:43;;;;;;;20.08;16.25;;;;;;;9.75;83.72;101490.25;10281282;28;20116;-64
2021/11/20 01:14:46;;;;;;;21.58;16.45;;;;;;;9.73;83.88;101484.19;10297929;28;20120;-65
2021/11/20 01:19:48;;;;;;;22.70;17.25;;;;;;;9.77;83.51;101488.34;10303000;28;20244;-64
2021/11/20 01:24:50;;;;;;;23.35;18.00;;;;;;;9.62;83.78;101483.91;10284548;28;20069;-65
2021/11/20 01:29:51;;;;;;;24.38;18.15;;;;;;;9.63;84.06;101493.63;10303178;28;20073;-65
2021/11/20 01:34:53;;;;;;;24.00;18.08;;;;;;;9.69;84.15;101485.28;10302754;28;20136;-65
2021/11/20 01:39:55;;;;;;;24.27;18.00;;;;;;;9.66;84.01;101477.50;10285210;28;20042;-64
2021/11/20 01:45:05;;;;;;;25.33;19.02;;;;;;;9.49;84.40;101474.00;10300519;28;20066;-64
2021/11/20 01:50:12;;;;;;;28.50;20.15;;;;;;;9.33;85.34;101467.81;10301231;28;20073;-65
2021/11/20 01:55:35;;;;;;;26.35;20.02;;;;;;;9.33;85.88;101467.81;10309702;28;20050;-64
2021/11/20 02:00:49;;;;;;;26.50;19.65;;;;;;;9.33;85.80;101460.69;10266586;28;20125;-64
2021/11/20 02:06:25;;;;;;;26.60;20.30;;;;;;;9.40;85.45;101463.88;10268339;28;20053;-64
2021/11/20 02:11:41;;;;;;;;;;;;;;;9.51;85.31;101460.59;10249492;28;20047;-64
2021/11/20 02:17:02;;;;;;;26.48;20.65;;;;;;;9.61;84.58;101450.28;10298515;28;19921;-65
2021/11/20 02:22:26;;;;;;;26.20;21.05;;;;;;;9.58;84.79;101450.47;10305663;28;20567;-63
2021/11/20 02:27:33;;;;;;;25.83;20.38;;;;;;;9.49;84.87;101443.91;10308444;28;20045;-63
2021/11/20 02:32:34;;;;;;;27.30;21.20;;;;;;;9.48;84.82;101435.06;10302807;28;20089;-63
2021/11/20 02:37:35;;;;;;;31.02;23.15;;;;;;;9.49;84.95;101431.47;10290658;28;20160;-63
2021/11/20 02:42:37;;;;;;;28.73;23.00;;;;;;;9.33;85.38;101425.31;10304348;28;20050;-64
2021/11/20 02:47:40;;;;;;;31.38;22.85;;;;;;;9.17;86.47;101415.53;10254011;28;20100;-64
2021/11/20 02:52:41;;;;;;;30.05;22.63;;;;;;;9.16;86.59;101405.00;10266674;28;20209;-64
2021/11/20 02:57:43;;;;;;;28.92;22.15;;;;;;;9.18;86.58;101401.31;10265985;28;20129;-65
2021/11/20 03:02:45;;;;;;;31.83;22.88;;;;;;;9.19;86.68;101408.34;10267118;28;20146;-64
2021/11/20 03:07:46;;;;;;;31.05;22.80;;;;;;;9.27;86.36;101399.09;10266377;28;20120;-63
2021/11/20 03:12:48;;;;;;;28.98;21.58;;;;;;;9.23;86.56;101397.53;10266061;28;20050;-64
2021/11/20 03:17:49;;;;;;;28.63;22.52;;;;;;;9.12;86.63;101377.75;10293194;28;20149;-64
2021/11/20 03:22:55;;;;;;;28.20;21.75;;;;;;;9.17;87.28;101385.44;10306854;28;20042;-64
2021/11/20 03:27:57;;;;;;;28.27;21.65;;;;;;;9.14;86.88;101372.34;10302722;28;20473;-63
2021/11/20 03:32:59;;;;;;;34.40;24.80;;;;;;;9.20;86.72;101354.28;10290826;28;20342;-64
2021/11/20 03:38:00;;;;;;;31.10;24.02;;;;;;;9.23;86.66;101376.28;10308181;28;20133;-64
2021/11/20 03:43:03;;;;;;;30.40;21.67;;;;;;;9.23;86.50;101360.34;10307909;28;20643;-64
2021/11/20 03:48:06;;;;;;;33.15;23.92;;;;;;;9.25;86.63;101364.63;10311367;28;20481;-64
2021/11/20 03:53:09;;;;;;;34.80;24.67;;;;;;;9.30;86.15;101348.41;10305916;28;20042;-65
2021/11/20 03:58:10;;;;;;;31.13;23.42;;;;;;;9.24;86.67;101343.47;10300305;28;20137;-64
2021/11/20 04:03:12;;;;;;;29.02;22.63;;;;;;;9.28;86.75;101352.97;10307981;28;20122;-64
2021/11/20 04:08:14;;;;;;;29.38;23.13;;;;;;;9.33;86.19;101342.94;10302781;28;20497;-64
2021/11/20 04:13:18;;;;;;;;;;;;;;;9.35;86.22;101344.56;10303764;28;20046;-64
2021/11/20 04:18:20;;;;;;;28.05;22.38;;;;;;;9.39;85.99;101347.88;10289313;28;19944;-64
2021/11/20 04:23:21;;;;;;;28.17;21.75;;;;;;;9.44;85.72;101348.47;10305700;28;20125;-65
2021/11/20 04:28:23;;;;;;;28.58;21.63;;;;;;;9.53;85.58;101344.41;10303895;28;20050;-65
2021/11/20 04:33:24;;;;;;;28.85;21.33;;;;;;;9.54;85.10;101341.66;10304879;28;20053;-64
2021/11/20 04:38:25;;;;;;;29.33;21.48;;;;;;;9.54;84.78;101327.53;10282997;28;20584;-65
2021/11/20 04:43:27;;;;;;;30.70;22.15;;;;;;;9.41;85.20;101330.03;10303056;28;20100;-64
2021/11/20 04:48:28;;;;;;;26.08;20.92;;;;;;;9.54;85.46;101339.00;10283172;28;22422;-64
2021/11/20 04:53:32;;;;;;;25.83;20.70;;;;;;;9.64;84.69;101343.81;10303358;28;20053;-64
2021/11/20 04:58:34;;;;;;;29.07;22.17;;;;;;;9.48;85.08;101336.72;10300448;28;20054;-64
2021/11/20 05:03:36;;;;;;;25.02;20.90;;;;;;;9.50;84.88;101334.84;10288586;28;20377;-64
2021/11/20 05:08:38;;;;;;;30.75;23.13;;;;;;;9.60;84.89;101328.97;10302994;28;20053;-64
2021/11/20 05:13:39;;;;;;;32.08;23.65;;;;;;;9.45;85.10;101331.56;10302336;28;20070;-63
2021/11/20 05:18:41;;;;;;;31.95;24.02;;;;;;;9.35;85.50;101328.63;10302744;28;20479;-64
2021/11/20 05:23:43;;;;;;;28.58;23.63;;;;;;;9.23;86.12;101325.81;10301241;28;20080;-64
2021/11/20 05:28:51;;;;;;;35.47;25.13;;;;;;;9.28;86.21;101327.25;10289580;28;20473;-64
2021/11/20 05:33:53;;;;;;;34.45;24.20;;;;;;;9.36;85.36;101327.66;10292137;28;20054;-66
2021/11/20 05:38:55;;;;;;;33.53;24.65;;;;;;;9.28;85.85;101326.41;10307249;28;20133;-64
2021/11/20 05:43:58;;;;;;;30.40;23.60;;;;;;;9.24;86.19;101316.91;10309952;28;20130;-65
2021/11/20 05:49:00;;;;;;;29.70;23.80;;;;;;;9.23;86.21;101323.16;10309452;28;20829;-70
2021/11/20 05:54:05;;;;;;;30.45;23.23;;;;;;;9.29;85.63;101322.78;10309956;28;20050;-65
2021/11/20 05:59:07;;;;;;;32.17;24.40;;;;;;;9.33;85.86;101319.00;10285871;28;20396;-65
2021/11/20 06:04:08;;;;;;;30.75;23.42;;;;;;;9.21;86.13;101315.25;10309972;28;20046;-65
2021/11/20 06:09:11;;;;;;;31.67;23.33;;;;;;;9.28;86.10;101321.09;10304800;28;20081;-65
2021/11/20 06:14:12;;;;;;;33.67;24.38;;;;;;;9.41;85.43;101310.59;10306346;28;20048;-65
2021/11/20 06:19:15;;;;;;;28.85;22.08;;;;;;;9.39;85.94;101313.34;10329286;28;20056;-65
2021/11/20 06:24:16;;;;;;;30.05;24.50;;;;;;;9.44;85.61;101311.25;10308515;28;20053;-66
2021/11/20 06:29:18;;;;;;;28.77;23.45;;;;;;;9.46;85.20;101312.03;10323602;28;20073;-66
2021/11/20 06:34:21;;;;;;;30.90;25.92;;;;;;;9.42;85.41;101317.63;10327152;28;20065;-66
2021/11/20 06:39:23;;;;;;;36.00;25.30;;;;;;;9.36;85.32;101306.41;10326654;28;20058;-66
2021/11/20 06:44:25;;;;;;;32.40;24.08;;;;;;;9.38;85.46;101303.66;10323035;28;20057;-66
2021/11/20 06:49:26;;;;;;;30.67;23.23;;;;;;;9.31;85.75;101320.91;10332101;28;20248;-67
2021/11/20 06:54:27;;;;;;;34.47;25.60;;;;;;;9.19;86.07;101317.16;10335345;28;20284;-66
2021/11/20 07:04:44;;;;;;;28.08;22.83;;;;;;;9.24;86.21;101308.94;10264382;28;20054;-65
2021/11/20 07:09:47;;;;;;;29.02;23.42;;;;;;;9.45;85.56;101323.59;10260554;28;20062;-67
2021/11/20 07:14:48;;;;;;;28.73;21.67;;;;;;;9.40;85.18;101323.03;10256915;28;20766;-66
2021/11/20 07:19:50;;;;;;;27.65;20.92;;;;;;;9.43;85.37;101324.63;10248461;28;20136;-66
2021/11/20 07:24:51;;;;;;;26.15;21.45;;;;;;;9.37;84.91;101323.22;10247696;28;20061;-66
2021/11/20 07:29:53;;;;;;;25.85;20.92;;;;;;;9.42;84.96;101320.28;10321743;28;20094;-66
2021/11/20 07:34:55;;;;;;;25.95;18.67;;;;;;;9.50;84.71;101315.34;10321810;28;20512;-66
2021/11/20 07:39:57;;;;;;;26.63;21.00;;;;;;;9.50;84.52;101308.25;10321766;28;20181;-66
2021/11/20 07:45:02;;;;;;;25.27;20.58;;;;;;;9.54;84.21;101311.56;10321835;28;20160;-66
2021/11/20 07:50:04;;;;;;;25.05;19.65;;;;;;;9.55;83.75;101297.34;10321534;28;20135;-65
2021/11/20 07:55:07;;;;;;;22.17;19.27;;;;;;;9.60;83.40;101297.06;10322108;28;20053;-66
2021/11/20 08:00:13;;;;;;;23.90;18.25;;;;;;;9.60;83.60;101302.38;10306546;28;20053;-68
2021/11/20 08:05:15;;;;;;;25.58;19.92;;;;;;;9.63;83.38;101288.91;10266664;28;20051;-67
2021/11/20 08:10:19;;;;;;;27.33;17.87;;;;;;;9.63;83.05;101276.47;10260425;28;20050;-67
2021/11/20 08:15:21;;;;;;;23.40;19.67;;;;;;;9.75;83.06;101280.19;10255083;28;20049;-66
2021/11/20 08:20:26;;;;;;;20.70;17.90;;;;;;;9.69;83.04;101280.56;10257733;28;20050;-63
2021/11/20 08:25:28;;;;;;;23.20;17.30;;;;;;;9.82;83.13;101264.72;10258704;28;20137;-64
2021/11/20 08:30:30;;;;;;;22.20;18.48;;;;;;;9.96;82.15;101267.38;10260236;28;20543;-64
2021/11/20 08:35:32;;;;;;;25.52;19.02;;;;;;;10.04;81.73;101261.59;10259028;28;20051;-66
2021/11/20 08:40:34;;;;;;;23.58;19.40;;;;;;;10.05;81.17;101257.97;10257573;28;20043;-66
2021/11/20 08:45:42;;;;;;;20.35;17.13;;;;;;;10.07;81.30;101261.38;10261510;28;20355;-66
2021/11/20 08:50:52;;;;;;;22.20;18.27;;;;;;;10.04;80.87;101256.25;10257061;28;20074;-66
2021/11/20 08:55:54;;;;;;;22.65;18.70;;;;;;;10.09;80.69;101248.88;10256665;28;20280;-65
2021/11/20 09:01:04;;;;;;;24.20;18.88;;;;;;;10.23;80.76;101240.84;10319091;28;20523;-65
2021/11/20 09:06:12;;;;;;;20.85;17.73;;;;;;;10.36;80.11;101240.13;10301442;28;20068;-66
2021/11/20 09:11:19;;;;;;;21.13;18.27;;;;;;;10.38;79.72;101236.41;10320949;28;20058;-65
2021/11/20 09:16:26;;;;;;;21.05;17.38;;;;;;;10.42;79.66;101226.44;10235071;28;20121;-65
2021/11/20 09:21:29;;;;;;;22.58;17.85;;;;;;;10.39;79.31;101232.78;10255094;28;20057;-65
2021/11/20 09:26:32;;;;;;;33.83;29.85;;;;;;;10.52;79.23;101238.16;10256522;28;20047;-65
2021/11/20 09:31:36;;;;;;;27.33;23.83;;;;;;;10.56;79.17;101230.84;10250462;28;20046;-66
2021/11/20 09:36:38;;;;;;;22.00;18.73;;;;;;;10.51;78.69;101222.28;10252457;28;20077;-65
2021/11/20 09:41:58;;;;;;;24.10;18.67;;;;;;;10.67;78.67;101228.31;10255906;28;20086;-66
2021/11/20 09:47:14;;;;;;;21.92;17.80;;;;;;;10.67;78.49;101223.00;10252375;28;20528;-66
2021/11/20 09:52:16;;;;;;;20.55;17.15;;;;;;;10.66;78.39;101226.63;10256532;28;20047;-66
2021/11/20 09:57:46;;;;;;;22.30;17.00;;;;;;;10.74;77.81;101221.66;10236614;28;20122;-64
2021/11/20 10:03:01;;;;;;;26.67;22.02;;;;;;;10.73;77.89;101211.97;10326209;28;20372;-65
2021/11/20 10:08:02;;;;;;;20.15;16.88;;;;;;;10.88;77.33;101215.41;10322781;28;20073;-64
2021/11/20 10:13:16;;;;;;;22.77;17.80;;;;;;;10.81;76.64;101198.16;10301402;28;20061;-64
2021/11/20 10:18:27;;;;;;;21.63;17.90;;;;;;;10.88;76.67;101199.41;10266294;28;20047;-66
2021/11/20 10:23:59;;;;;;;23.20;18.25;;;;;;;11.02;77.04;101184.31;10263163;28;20571;-66
2021/11/20 10:29:15;;;;;;;23.60;17.30;;;;;;;11.06;76.08;101180.50;10238919;28;20390;-64
2021/11/20 10:34:48;;;;;;;21.80;16.98;;;;;;;10.93;76.17;101176.00;10320701;28;20063;-64
2021/11/20 10:39:54;;;;;;;20.75;17.50;;;;;;;11.13;75.97;101171.13;10264614;28;20042;-65
2021/11/20 10:45:13;;;;;;;20.98;17.90;;;;;;;11.25;75.75;101161.44;10255705;28;20149;-64
2021/11/20 10:50:32;;;;;;;21.83;18.08;;;;;;;11.32;74.86;101136.94;10286642;28;20050;-68
2021/11/20 10:55:52;;;;;;;22.23;16.77;;;;;;;11.48;74.86;101138.50;10283455;28;20046;-65
2021/11/20 11:01:15;;;;;;;19.25;15.18;;;;;;;11.58;74.18;101123.56;10285208;28;20053;-66
2021/11/20 11:06:46;;;;;;;19.52;16.63;;;;;;;11.53;73.41;101115.06;10262348;28;20161;-65
2021/11/20 11:12:30;;;;;;;19.70;15.80;;;;;;;11.73;73.86;101102.13;10318167;28;21646;-65
2021/11/20 11:17:53;;;;;;;21.33;14.83;;;;;;;11.59;73.03;101109.28;10163150;28;20061;-64
2021/11/20 11:23:13;;;;;;;16.77;14.07;;;;;;;11.68;73.06;101086.44;10270660;28;20051;-63
2021/11/20 11:28:34;;;;;;;19.90;16.45;;;;;;;11.80;72.47;101074.88;10304395;28;20062;-64
2021/11/20 11:33:47;;;;;;;20.73;14.40;;;;;;;11.95;72.58;101067.63;10279005;28;20544;-65
2021/11/20 11:39:22;;;;;;;18.20;15.10;;;;;;;12.07;71.90;101059.66;10279775;28;20046;-65
2021/11/20 11:44:52;;;;;;;16.45;14.70;;;;;;;12.18;71.61;101041.88;10281171;28;20497;-65
2021/11/20 11:50:16;;;;;;;15.95;13.70;;;;;;;12.10;71.16;101030.94;10262922;28;20066;-65
2021/11/20 11:55:36;;;;;;;17.45;15.63;;;;;;;12.34;69.85;101030.03;10324387;28;20601;-65
2021/11/20 12:00:40;;;;;;;17.73;14.68;;;;;;;12.30;68.05;101017.91;10321377;28;20101;-65
2021/11/20 12:06:00;;;;;;;20.58;15.93;;;;;;;12.20;69.44;101012.41;10304506;28;20165;-66
2021/11/20 12:11:08;;;;;;;17.48;15.23;;;;;;;12.18;69.19;101004.50;10322394;28;20415;-66
2021/11/20 12:16:22;;;;;;;17.33;15.63;;;;;;;12.20;68.74;100996.38;10319951;28;20062;-65
2021/11/20 12:21:38;;;;;;;17.38;15.57;;;;;;;12.25;68.59;100983.56;10321469;28;20060;-65
2021/11/20 12:26:39;;;;;;;16.45;14.82;;;;;;;12.33;65.94;100970.47;10316597;28;20058;-65
2021/11/20 12:32:11;;;;;;;18.85;15.98;;;;;;;12.49;66.78;100954.13;10304077;28;20100;-65
2021/11/20 12:37:23;;;;;;;15.48;13.70;;;;;;;12.39;64.74;100939.78;10275705;28;20054;-66
2021/11/20 12:42:37;;;;;;;11.18;9.98;;;;;;;12.18;63.44;100939.63;10280819;28;20791;-66
2021/11/20 12:48:05;;;;;;;10.30;9.27;;;;;;;12.13;62.37;100931.97;10278404;28;20057;-65
2021/11/20 12:53:28;;;;;;;10.68;9.50;;;;;;;12.20;62.82;100921.66;10293656;28;20287;-65
2021/11/20 12:58:37;;;;;;;11.80;10.70;;;;;;;12.21;62.54;100915.34;10281297;28;20046;-66
2021/11/20 13:03:49;;;;;;;13.40;11.98;;;;;;;12.32;62.59;100906.53;10283217;28;20049;-64
2021/11/20 13:09:00;;;;;;;9.10;8.30;;;;;;;12.21;61.77;100894.00;10288914;28;20050;-65
2021/11/20 13:14:04;;;;;;;13.43;11.50;;;;;;;12.17;62.27;100887.19;10292408;28;20054;-65
2021/11/20 13:19:08;;;;;;;11.38;10.13;;;;;;;11.92;62.05;100875.72;10275863;28;20059;-66
2021/11/20 13:24:29;;;;;;;11.80;10.70;;;;;;;11.87;62.81;100864.53;10282130;28;20060;-64
2021/11/20 13:29:34;;;;;;;13.35;11.98;;;;;;;11.87;63.31;100850.34;10295212;28;20054;-65
2021/11/20 13:34:36;;;;;;;15.10;13.57;;;;;;;11.82;64.23;100837.38;10279754;28;20571;-65
2021/11/20 13:39:37;;;;;;;13.45;11.23;;;;;;;11.66;63.73;100833.22;10282528;28;20057;-65
2021/11/20 13:44:40;;;;;;;13.48;11.25;;;;;;;11.68;64.65;100831.28;10280612;28;20056;-66
2021/11/20 13:49:41;;;;;;;13.43;11.90;;;;;;;11.77;64.87;100828.84;10286681;28;20050;-64
2021/11/20 13:54:55;;;;;;;14.07;12.57;;;;;;;11.64;64.32;100813.78;10282861;28;20329;-66
2021/11/20 14:00:12;;;;;;;14.07;12.27;;;;;;;11.67;64.34;100815.38;10286069;28;20057;-65
2021/11/20 14:05:15;;;;;;;12.95;11.52;;;;;;;11.70;64.44;100808.97;10285140;28;21562;-65
2021/11/20 14:10:33;;;;;;;12.93;11.48;;;;;;;11.77;65.22;100812.84;10282201;28;20050;-66
2021/11/20 14:15:53;;;;;;;13.93;12.55;;;;;;;11.73;63.73;100803.41;10279102;28;20055;-64
2021/11/20 14:21:02;;;;;;;14.15;12.65;;;;;;;11.74;64.76;100802.41;10274576;28;20043;-66
2021/11/20 14:26:07;;;;;;;14.00;12.55;;;;;;;11.62;63.51;100796.22;10277107;28;20154;-67
2021/11/20 14:31:20;;;;;;;15.53;13.43;;;;;;;11.54;64.64;100783.47;10283441;28;20054;-66
2021/11/20 14:36:31;;;;;;;15.25;13.70;;;;;;;11.42;64.28;100784.41;10283579;28;20046;-66
2021/11/20 14:41:39;;;;;;;17.13;14.90;;;;;;;11.35;65.06;100769.84;10285755;28;20056;-66
2021/11/20 14:46:42;;;;;;;13.85;12.45;;;;;;;11.35;64.96;100775.16;10285509;28;20497;-66
2021/11/20 14:51:47;;;;;;;14.60;11.48;;;;;;;11.38;65.37;100765.13;10284382;28;20058;-66
2021/11/20 14:56:56;;;;;;;14.77;13.25;;;;;;;11.37;64.96;100757.25;10244393;28;20491;-65
2021/11/20 15:01:58;;;;;;;17.75;15.85;;;;;;;11.31;64.56;100746.09;10253674;28;20061;-65
2021/11/20 15:07:00;;;;;;;17.73;15.60;;;;;;;11.27;65.15;100741.09;10252635;28;20065;-66
2021/11/20 15:12:02;;;;;;;17.88;15.88;;;;;;;11.26;65.03;100737.59;10254808;28;20557;-66
2021/11/20 15:17:05;;;;;;;17.45;15.70;;;;;;;11.24;65.60;100726.19;10258384;28;20401;-66
2021/11/20 15:22:06;;;;;;;17.48;15.55;;;;;;;11.06;65.31;100727.59;10259197;28;20074;-65
2021/11/20 15:27:10;;;;;;;15.90;14.30;;;;;;;11.05;65.76;100725.88;10260523;28;20461;-64
2021/11/20 15:32:12;;;;;;;16.98;14.60;;;;;;;11.05;65.75;100715.22;10251017;28;20058;-65
2021/11/20 15:37:13;;;;;;;14.68;13.18;;;;;;;11.02;65.87;100710.13;10244201;28;20051;-65
2021/11/20 15:42:15;;;;;;;16.25;13.57;;;;;;;10.91;65.61;100710.94;10262886;28;20082;-65
2021/11/20 15:47:17;;;;;;;16.05;13.68;;;;;;;10.94;66.09;100702.72;10241760;28;20084;-65
2021/11/20 15:52:18;;;;;;;15.32;13.80;;;;;;;11.01;66.18;100703.13;10257806;28;20328;-65
2021/11/20 15:57:19;;;;;;;13.98;12.57;;;;;;;10.96;65.70;100690.97;10263261;28;20501;-64
2021/11/20 16:02:21;;;;;;;16.98;15.27;;;;;;;10.82;66.63;100691.16;10299265;28;20056;-67
2021/11/20 16:07:22;;;;;;;16.05;13.80;;;;;;;10.82;66.82;100691.16;10318433;28;20064;-65
2021/11/20 16:12:24;;;;;;;13.43;12.02;;;;;;;10.78;66.93;100682.56;10317463;28;20053;-63
2021/11/20 16:17:25;;;;;;;13.82;12.35;;;;;;;10.75;67.01;100676.63;10323741;28;20060;-65
2021/11/20 16:22:27;;;;;;;14.02;12.20;;;;;;;10.74;66.45;100664.25;10303370;28;20046;-64
2021/11/20 16:27:28;;;;;;;13.02;11.70;;;;;;;10.71;66.75;100661.84;10319971;28;20045;-65
2021/11/20 16:32:30;;;;;;;16.30;13.77;;;;;;;10.79;67.22;100657.63;10319018;28;20045;-63
2021/11/20 16:37:31;;;;;;;14.23;12.68;;;;;;;10.65;66.92;100644.50;10301258;28;20243;-64
2021/11/20 16:42:33;;;;;;;14.18;12.48;;;;;;;10.66;66.76;100634.69;10318527;28;20778;-63
2021/11/20 16:47:37;;;;;;;17.15;15.32;;;;;;;10.67;66.60;100631.91;10319786;28;20396;-63
2021/11/20 16:52:38;;;;;;;18.05;15.23;;;;;;;10.76;67.02;100628.59;10303194;28;20056;-63
2021/11/20 16:57:40;;;;;;;14.82;13.32;;;;;;;10.72;66.73;100613.78;10317614;28;20064;-64
2021/11/20 17:02:41;;;;;;;14.05;12.65;;;;;;;10.74;66.65;100608.34;10313518;28;20100;-64
2021/11/20 17:07:43;;;;;;;12.90;11.52;;;;;;;10.63;65.79;100605.63;10300356;28;20527;-63
2021/11/20 17:12:44;;;;;;;14.18;12.68;;;;;;;10.69;66.43;100602.50;10300640;28;20204;-65
2021/11/20 17:17:45;;;;;;;16.48;13.25;;;;;;;10.78;66.49;100597.34;10317535;28;20062;-64
2021/11/20 17:22:50;;;;;;;16.20;14.50;;;;;;;10.73;66.23;100593.31;10313285;28;20055;-64
2021/11/20 17:27:51;;;;;;;14.63;12.90;;;;;;;10.68;66.99;100583.03;10315405;28;20427;-64
2021/11/20 17:32:53;;;;;;;16.35;14.65;;;;;;;10.63;66.92;100571.03;10314366;28;20050;-64
2021/11/20 17:37:54;;;;;;;15.60;14.15;;;;;;;10.50;67.26;100569.28;10318023;28;20052;-63
2021/11/20 17:42:56;;;;;;;17.25;15.43;;;;;;;10.54;68.41;100568.09;10317162;28;20054;-64
2021/11/20 17:47:57;;;;;;;15.57;14.07;;;;;;;10.59;68.54;100549.97;10319188;28;20046;-64
2021/11/20 17:52:59;;;;;;;15.63;14.05;;;;;;;10.78;67.49;100557.41;10301338;28;20125;-64
2021/11/20 17:58:05;;;;;;;16.42;14.25;;;;;;;10.87;67.45;100555.84;10317196;28;20453;-64
2021/11/20 18:03:07;;;;;;;18.17;15.70;;;;;;;10.69;67.13;100557.25;10299073;28;20496;-64
2021/11/20 18:08:11;;;;;;;18.38;16.63;;;;;;;10.59;67.41;100549.97;10318338;28;20042;-63
2021/11/20 18:13:12;;;;;;;17.60;15.90;;;;;;;10.55;67.36;100543.19;10315580;28;20069;-64
2021/11/20 18:18:14;;;;;;;16.40;14.82;;;;;;;10.49;67.48;100532.97;10298339;28;20098;-63
2021/11/20 18:23:16;;;;;;;18.48;16.52;;;;;;;10.52;67.33;100524.78;10292168;28;21558;-63
2021/11/20 18:28:18;;;;;;;19.52;17.15;;;;;;;10.39;67.46;100510.72;10314930;28;20451;-64
2021/11/20 18:33:19;;;;;;;19.52;16.83;;;;;;;10.46;67.91;100495.97;10315732;28;20132;-64
2021/11/20 18:38:24;;;;;;;21.35;19.05;;;;;;;10.36;67.98;100489.66;10320769;28;20057;-64
2021/11/20 18:43:25;;;;;;;18.15;16.25;;;;;;;10.34;68.38;100483.59;10300985;28;21011;-65
2021/11/20 18:48:27;;;;;;;18.92;16.90;;;;;;;10.36;68.58;100473.69;10320721;28;20249;-64
2021/11/20 18:53:28;;;;;;;18.33;15.73;;;;;;;10.27;68.49;100470.72;10320539;28;20453;-65
2021/11/20 18:58:30;;;;;;;19.20;16.52;;;;;;;10.34;67.42;100472.94;10320746;28;20168;-64
2021/11/20 19:03:31;;;;;;;18.65;16.27;;;;;;;10.27;68.11;100453.94;10317175;28;20395;-65
2021/11/20 19:08:32;;;;;;;23.58;21.02;;;;;;;10.27;68.47;100470.72;10318863;28;20058;-65
2021/11/20 19:13:35;;;;;;;28.80;25.90;;;;;;;10.21;68.96;100443.75;10318824;28;20050;-65
2021/11/20 19:18:38;;;;;;;19.42;17.42;;;;;;;10.29;68.04;100443.16;10323361;28;20403;-64
2021/11/20 19:23:39;;;;;;;28.35;25.55;;;;;;;10.17;68.14;100443.13;10323877;28;20056;-65
2021/11/20 19:28:46;;;;;;;20.10;17.13;;;;;;;10.16;69.14;100445.91;10320694;28;20133;-65
2021/11/20 19:33:47;;;;;;;17.58;15.68;;;;;;;10.06;68.67;100427.16;10329122;28;20054;-64
2021/11/20 19:38:49;;;;;;;20.38;17.05;;;;;;;10.09;69.18;100425.09;10329583;28;20141;-63
2021/11/20 19:43:51;;;;;;;18.73;15.55;;;;;;;10.10;68.99;100431.25;10325655;28;20739;-64
2021/11/20 19:48:52;;;;;;;16.48;14.75;;;;;;;10.02;69.11;100429.16;10327759;28;20042;-64
2021/11/20 19:53:54;;;;;;;22.15;15.07;;;;;;;10.03;69.18;100422.91;10331591;28;20064;-64
2021/11/20 19:58:55;;;;;;;17.45;14.23;;;;;;;10.01;69.03;100422.19;10312899;28;20062;-64
2021/11/20 20:03:57;;;;;;;16.05;14.35;;;;;;;10.00;69.22;100411.66;10328893;28;20854;-64
2021/11/20 20:08:59;;;;;;;18.60;14.90;;;;;;;9.98;69.31;100414.41;10329527;28;20046;-64
2021/11/20 20:14:01;;;;;;;19.35;16.27;;;;;;;9.86;69.10;100413.53;10331145;28;20050;-64
2021/11/20 20:19:03;;;;;;;19.42;16.67;;;;;;;9.74;70.32;100406.47;10329970;28;20053;-66
2021/11/20 20:24:07;;;;;;;18.20;14.70;;;;;;;9.71;70.12;100396.06;10311584;28;21584;-64
2021/11/20 20:29:11;;;;;;;20.17;17.27;;;;;;;9.60;70.37;100402.16;10330782;28;20056;-63
2021/11/20 20:34:12;;;;;;;20.65;17.02;;;;;;;9.62;70.19;100399.41;10332089;28;20064;-63
2021/11/20 20:39:14;;;;;;;20.30;16.38;;;;;;;9.57;70.66;100385.63;10329368;28;20508;-65
2021/11/20 20:44:15;;;;;;;18.77;15.02;;;;;;;9.60;69.88;100374.75;10325819;28;20261;-64
2021/11/20 20:49:16;;;;;;;16.88;14.45;;;;;;;9.49;70.54;100365.78;10330535;28;20045;-64
2021/11/20 20:54:19;;;;;;;19.00;15.52;;;;;;;9.47;70.01;100367.69;10326769;28;20456;-64
2021/11/20 20:59:20;;;;;;;19.85;15.23;;;;;;;9.25;70.90;100370.22;10328627;28;20052;-65
2021/11/20 21:04:22;;;;;;;18.90;15.77;;;;;;;9.44;70.61;100359.09;10311585;28;20169;-64
2021/11/20 21:09:23;;;;;;;15.10;13.25;;;;;;;9.45;70.00;100351.00;10326523;28;20515;-65
2021/11/20 21:14:25;;;;;;;17.15;13.45;;;;;;;9.42;69.70;100351.22;10326375;28;20056;-65
2021/11/20 21:24:48;;;;;;;15.60;13.15;;;;;;;9.01;71.03;100344.50;10322170;28;20293;-65
2021/11/20 21:29:50;;;;;;;15.13;12.50;;;;;;;9.13;71.08;100335.63;10325323;28;20118;-65
2021/11/20 21:34:54;;;;;;;14.88;12.18;;;;;;;9.18;70.01;100330.81;10322260;28;20058;-64
2021/11/20 21:39:55;;;;;;;15.63;13.32;;;;;;;9.10;70.45;100327.91;10324213;28;20427;-65
2021/11/20 21:44:57;;;;;;;17.13;14.30;;;;;;;9.08;70.59;100321.00;10328627;28;20060;-65
2021/11/20 21:49:58;;;;;;;17.95;15.30;;;;;;;8.97;70.47;100312.00;10329688;28;20058;-65
2021/11/20 21:54:59;;;;;;;18.00;14.52;;;;;;;8.90;71.05;100305.44;10325935;28;20404;-65
2021/11/20 22:00:01;;;;;;;17.52;15.65;;;;;;;8.88;71.17;100310.03;10325965;28;20054;-66
2021/11/20 22:05:03;;;;;;;19.13;15.00;;;;;;;8.95;71.56;100310.44;10327682;28;20068;-65
2021/11/20 22:10:05;;;;;;;20.35;17.08;;;;;;;8.96;71.38;100299.72;10328031;28;20133;-64
2021/11/20 22:15:07;;;;;;;17.85;15.25;;;;;;;8.96;71.59;100304.16;10322155;28;20054;-64
2021/11/20 22:20:10;;;;;;;18.27;16.30;;;;;;;8.98;71.07;100279.19;10332463;28;20514;-65
2021/11/20 22:25:12;;;;;;;17.15;15.32;;;;;;;8.97;71.47;100274.84;10335170;28;20096;-65
2021/11/20 22:30:13;;;;;;;17.85;15.18;;;;;;;9.02;70.83;100274.50;10308991;28;22167;-65
2021/11/20 22:35:20;;;;;;;17.70;15.43;;;;;;;8.97;71.34;100266.03;10339410;28;20049;-66
2021/11/20 22:40:28;;;;;;;17.45;15.52;;;;;;;8.99;71.71;100264.97;10328038;28;20065;-65
2021/11/20 22:45:31;;;;;;;18.95;15.57;;;;;;;8.90;71.61;100244.38;10317112;28;20087;-66
2021/11/20 22:50:33;;;;;;;18.52;16.42;;;;;;;8.78;72.71;100246.16;10334628;28;20045;-64
2021/11/20 22:55:35;;;;;;;19.00;15.90;;;;;;;8.63;73.75;100252.56;10324507;28;20064;-65
2021/11/20 23:00:42;;;;;;;18.98;16.48;;;;;;;8.71;73.54;100238.72;10324828;28;20042;-65
2021/11/20 23:05:46;;;;;;;18.05;16.02;;;;;;;8.84;73.15;100245.72;10321732;28;20062;-65
2021/11/20 23:10:48;;;;;;;18.65;16.42;;;;;;;8.94;73.00;100223.78;10322820;28;20062;-69
2021/11/20 23:15:51;;;;;;;18.90;16.92;;;;;;;8.77;73.84;100228.53;10324630;28;20049;-65